Main page
METAR-TAF:

METAR-TAF

Airports :

Ho Chi Minh City, Vietnam

Tan Son Nhat International Airport

latitude: 10-49N, longitude: 106-40E, elevation: 19 m

Current weather observation

The report was made 13 minutes ago, at 19:00 UTC
Wind 4 kt from the South
Temperature 28°C
Humidity 89%
Pressure 1007 hPa
Visibility 10 km or more
Scattered clouds at a height of 1500 ft
Scattered clouds at a height of 5000 ft

METAR: VVTS 231900Z 19004KT 9999 SCT015 SCT050 28/26 Q1007 NOSIG

Time: 02:13 (19:13 UTC)

Forecast

The report was made 2 hours and 13 minutes ago, at 17:00 UTC
Forecast valid from 23 at 18 UTC to 24 at 24 UTC
Wind 6 kt from the South/Southeast
Visibility 10 km or more
Scattered clouds at a height of 1500 ft
Scattered clouds at a height of 5000 ft
Temporary
from 24 at 11 UTC to 24 at 15 UTC
Visibility: 5000 m
Broken clouds at a height of 1500 ft
Few clouds at a height of 1700 ft, Cumulonimbus.
thunderstorm, rain

TAF: VVTS 231700Z 2318/2424 16006KT 9999 SCT015 SCT050 TEMPO 2411/2415 5000 TSRA BKN015 FEW017CB

Weather observations and forecasts of more than 4000 airports (METAR and TAF reports).

The available stations are represented by yellow and red dots on the map.

Hover mouse over dot to see the name of the station.

Then click to see weather observations and forecasts.

To change the map : click on the green buttons with a black cross to zoom in, on the green button with a dash to zoom out, or on the green arrows for adjacent maps.


METAR-TAF: